createdAt,value
2022-10-23T11:01:27.624Z,5.53
2022-10-23T11:04:18.166Z,7.68
2022-10-23T11:06:49.030Z,6.20
2022-10-23T11:09:25.560Z,4.60
2022-10-23T11:11:54.400Z,5.78
2022-10-23T11:14:26.863Z,7.18
2022-10-23T11:17:02.921Z,3.80
2022-10-23T11:19:58.722Z,5.93
2022-10-23T11:22:52.877Z,7.10
2022-10-23T11:25:59.621Z,5.05
2022-10-23T11:29:14.996Z,5.32
2022-10-23T15:37:37.230Z,4.65
2022-10-23T15:40:04.433Z,8.38
2022-10-23T15:42:31.248Z,3.65
2022-10-23T15:44:57.892Z,5.00
2022-10-23T15:47:24.652Z,3.92
2022-10-23T15:49:51.346Z,1.90
2022-10-23T15:52:18.077Z,3.95
2022-10-23T15:54:45.162Z,2.38
2022-10-23T15:57:12.170Z,16.05
2022-10-23T15:59:39.092Z,4.65
2022-10-23T16:02:06.026Z,11.35
2022-10-23T16:04:34.149Z,8.85
2022-10-23T16:07:00.899Z,5.20
2022-10-23T16:09:28.645Z,4.80
2022-10-23T16:11:55.381Z,8.80
2022-10-23T16:14:22.101Z,4.95
2022-10-23T16:16:48.775Z,5.45
2022-10-23T16:19:15.505Z,8.55
2022-10-23T16:21:42.353Z,7.53
2022-10-23T16:24:09.777Z,5.07
2022-10-23T16:26:39.724Z,4.80
2022-10-23T16:29:09.069Z,5.90
2022-10-23T16:31:35.840Z,4.18
2022-10-23T16:34:06.058Z,6.10
2022-10-23T16:36:37.209Z,7.68
2022-10-23T16:39:04.136Z,7.40
2022-10-23T16:41:32.205Z,4.00
2022-10-23T16:43:58.932Z,7.00
2022-10-23T16:46:25.693Z,4.97
2022-10-23T16:48:52.678Z,6.43
2022-10-23T16:51:23.033Z,8.25
2022-10-23T16:53:50.045Z,9.35
2022-10-23T16:56:19.031Z,13.27
2022-10-23T16:58:46.005Z,11.27
2022-10-23T17:01:16.403Z,8.90
2022-10-23T17:03:47.769Z,7.20
2022-10-23T17:06:17.728Z,8.50
2022-10-23T17:08:45.520Z,7.53
2022-10-23T17:11:16.629Z,8.35
2022-10-23T17:13:45.751Z,9.27
2022-10-23T17:16:15.794Z,6.80
2022-10-23T17:18:44.220Z,8.55
2022-10-23T17:21:12.430Z,10.93
2022-10-23T17:23:39.193Z,16.60
2022-10-23T17:26:12.279Z,14.77
2022-10-23T17:28:43.316Z,15.85
2022-10-23T17:31:18.858Z,15.93
2022-10-23T17:33:46.809Z,16.95
2022-10-23T17:36:16.490Z,12.02
2022-10-23T17:38:43.649Z,21.35
2022-10-23T17:41:13.008Z,31.80
2022-10-23T17:43:40.132Z,32.45
2022-10-23T17:46:09.039Z,17.98
2022-10-23T17:48:35.862Z,16.77
2022-10-23T17:51:08.945Z,15.82
2022-10-23T17:53:38.307Z,11.43
2022-10-23T17:56:07.458Z,14.13
2022-10-23T17:58:34.731Z,10.45
2022-10-23T18:01:10.366Z,13.38
2022-10-23T18:03:37.900Z,10.80
2022-10-23T18:06:09.127Z,8.65
2022-10-23T18:08:40.309Z,8.77
2022-10-23T18:11:08.051Z,5.07
2022-10-23T18:13:36.418Z,7.50
2022-10-23T18:16:05.098Z,10.55
2022-10-23T18:18:32.064Z,10.10
2022-10-23T18:20:59.780Z,6.82
2022-10-23T18:23:27.994Z,6.97
2022-10-23T18:25:55.098Z,5.13
2022-10-23T18:28:22.073Z,8.98
2022-10-23T18:30:54.668Z,7.75
2022-10-23T18:33:26.929Z,10.93
2022-10-23T18:35:53.802Z,14.50
2022-10-23T18:38:23.477Z,15.95
2022-10-23T18:40:55.127Z,14.38
2022-10-23T18:43:41.963Z,15.57
2022-10-23T18:46:10.126Z,7.45
2022-10-23T18:48:36.856Z,8.93
2022-10-23T18:51:03.577Z,7.13
2022-10-23T18:53:30.352Z,7.28
2022-10-23T18:55:57.095Z,6.30
2022-10-23T18:58:24.699Z,5.68
2022-10-23T19:00:51.509Z,3.03
2022-10-23T19:03:18.237Z,5.63
2022-10-23T19:05:46.496Z,4.10
2022-10-23T19:08:13.308Z,3.58
2022-10-23T19:10:42.362Z,5.35
2022-10-23T19:13:09.281Z,5.38
2022-10-23T19:15:39.541Z,5.78
2022-10-23T19:18:08.438Z,4.80
2022-10-23T19:20:35.816Z,5.50
2022-10-23T19:23:05.254Z,7.35
2022-10-23T19:25:33.871Z,10.82
2022-10-23T19:28:04.818Z,7.25
2022-10-23T19:30:32.135Z,6.88
2022-10-23T19:32:59.687Z,6.07
2022-10-23T19:35:26.491Z,8.25
2022-10-23T19:37:53.384Z,11.10
2022-10-23T19:40:20.450Z,17.63
2022-10-23T19:42:47.813Z,10.43
2022-10-23T19:45:15.275Z,20.15
2022-10-23T19:47:47.678Z,12.30
2022-10-23T19:50:14.563Z,13.07
2022-10-23T19:52:41.229Z,12.90
2022-10-23T19:55:08.884Z,15.77
2022-10-23T19:57:37.140Z,13.27
2022-10-23T20:00:06.792Z,12.30
2022-10-23T20:05:08.740Z,13.15
2022-10-23T20:07:37.134Z,13.05
2022-10-23T20:10:08.325Z,10.25
2022-10-23T20:12:35.135Z,12.30
2022-10-23T20:15:01.945Z,10.60
2022-10-23T20:17:28.822Z,16.00
2022-10-23T20:19:56.468Z,11.43
2022-10-23T20:22:23.824Z,16.17
2022-10-23T20:24:50.800Z,12.98
2022-10-23T20:27:18.553Z,11.55
2022-10-23T20:29:46.610Z,14.70
2022-10-23T20:32:15.761Z,11.90
2022-10-23T20:34:45.579Z,13.20
2022-10-23T20:37:15.163Z,17.02
2022-10-23T20:39:42.985Z,20.13
2022-10-23T20:42:09.855Z,14.30
2022-10-23T20:44:36.854Z,16.85
2022-10-23T20:47:04.294Z,18.33
2022-10-23T20:49:31.087Z,15.57
2022-10-23T20:51:57.867Z,13.88
